Time;durP1;ratioP1;P1;durP2;ratioP2;P2;SDS_P1;SDS_P2;PMS_P1;PMS_P2;Temp;Humidity;BMP_temperature;BMP_pressure;BME280_temperature;BME280_humidity;BME280_pressure;Samples;Min_cycle;Max_cycle;Signal;HPM_P1;HPM_P2
2023/09/23 00:01:04;;;;;;;0.00;0.00;;;12.00;99.90;;;;;;5091434;28;20184;-64
2023/09/23 00:03:33;;;;;;;0.00;0.00;;;12.00;99.90;;;;;;5091375;28;20225;-65
2023/09/23 00:06:02;;;;;;;0.00;0.00;;;12.00;99.90;;;;;;5091039;28;20231;-65
2023/09/23 00:08:27;;;;;;;0.00;0.00;;;12.00;99.90;;;;;;5089455;28;20168;-65
2023/09/23 00:10:53;;;;;;;0.00;0.00;;;12.00;99.90;;;;;;5091246;28;20183;-65
2023/09/23 00:13:21;;;;;;;0.00;0.00;;;12.00;99.90;;;;;;5090890;28;20663;-65
2023/09/23 00:15:48;;;;;;;0.00;0.00;;;11.90;99.90;;;;;;5091155;28;20592;-65
2023/09/23 00:18:17;;;;;;;0.10;0.10;;;11.90;99.90;;;;;;5091205;28;20242;-65
2023/09/23 00:20:44;;;;;;;0.00;0.00;;;11.90;99.90;;;;;;5091175;28;20211;-65
2023/09/23 00:23:09;;;;;;;0.00;0.00;;;11.90;99.90;;;;;;5090943;28;20690;-65
2023/09/23 00:25:35;;;;;;;0.00;0.00;;;11.90;99.90;;;;;;5090877;28;20188;-65
2023/09/23 00:28:01;;;;;;;0.00;0.00;;;11.80;99.90;;;;;;5090838;28;20267;-65
2023/09/23 00:30:27;;;;;;;0.00;0.00;;;11.80;99.90;;;;;;5090130;28;20329;-65
2023/09/23 00:32:52;;;;;;;0.00;0.00;;;11.80;99.90;;;;;;5091115;28;20191;-65
2023/09/23 00:35:19;;;;;;;0.00;0.00;;;11.80;99.90;;;;;;5089759;28;20187;-66
2023/09/23 00:37:49;;;;;;;0.00;0.00;;;11.80;99.90;;;;;;5085504;28;20228;-65
2023/09/23 00:40:38;;;;;;;0.00;0.00;;;11.80;99.90;;;;;;5090725;28;20184;-66
2023/09/23 00:43:11;;;;;;;0.00;0.00;;;11.80;99.90;;;;;;5101931;28;20203;-64
2023/09/23 00:45:45;;;;;;;0.00;0.00;;;11.80;99.90;;;;;;5090023;28;20206;-65
2023/09/23 00:48:12;;;;;;;0.00;0.00;;;11.80;99.90;;;;;;5090563;28;20191;-65
2023/09/23 00:50:37;;;;;;;0.00;0.00;;;11.70;99.90;;;;;;5090602;28;20184;-65
2023/09/23 00:53:04;;;;;;;0.00;0.00;;;11.70;99.90;;;;;;5090725;28;20195;-65
2023/09/23 00:55:31;;;;;;;0.00;0.00;;;11.70;99.90;;;;;;5090534;28;20176;-65
2023/09/23 00:58:00;;;;;;;0.00;0.00;;;11.60;99.90;;;;;;5089196;28;20180;-65
2023/09/23 01:00:31;;;;;;;0.00;0.00;;;11.60;99.90;;;;;;5090778;28;20647;-65
2023/09/23 01:02:59;;;;;;;0.00;0.00;;;11.60;99.90;;;;;;5090139;28;20172;-66
2023/09/23 01:05:29;;;;;;;0.00;0.00;;;11.50;99.90;;;;;;5089088;28;20188;-65
2023/09/23 01:07:56;;;;;;;0.00;0.00;;;11.50;99.90;;;;;;5077960;28;20176;-65
2023/09/23 01:10:23;;;;;;;0.00;0.00;;;11.60;99.90;;;;;;5094687;28;20254;-64
2023/09/23 01:12:48;;;;;;;0.00;0.00;;;11.60;99.90;;;;;;5094365;28;20176;-65
2023/09/23 01:15:18;;;;;;;0.00;0.00;;;11.60;99.90;;;;;;5094699;28;20274;-64
2023/09/23 01:17:48;;;;;;;0.00;0.00;;;11.70;99.90;;;;;;5094458;28;20187;-64
2023/09/23 01:20:16;;;;;;;0.00;0.00;;;11.70;99.90;;;;;;5094670;28;20190;-65
2023/09/23 01:22:41;;;;;;;0.00;0.00;;;11.70;99.90;;;;;;5094239;28;20261;-65
2023/09/23 01:25:08;;;;;;;0.00;0.00;;;11.70;99.90;;;;;;5094589;28;20650;-64
2023/09/23 01:27:34;;;;;;;0.00;0.00;;;11.80;99.90;;;;;;5094199;28;20264;-64
2023/09/23 01:30:06;;;;;;;0.00;0.00;;;11.80;99.90;;;;;;5094323;28;20180;-64
2023/09/23 01:32:42;;;;;;;0.00;0.00;;;11.80;99.90;;;;;;5094411;28;20184;-65
2023/09/23 01:35:09;;;;;;;0.00;0.00;;;11.80;99.90;;;;;;5088622;28;20551;-65
2023/09/23 01:37:35;;;;;;;0.30;0.05;;;11.80;99.90;;;;;;5093880;28;20216;-64
2023/09/23 01:40:01;;;;;;;0.00;0.00;;;11.80;99.90;;;;;;5094191;28;20208;-64
2023/09/23 01:42:30;;;;;;;0.00;0.00;;;11.80;99.90;;;;;;5094256;28;20259;-65
2023/09/23 01:44:57;;;;;;;0.10;0.10;;;11.80;99.90;;;;;;5093489;28;20198;-65
2023/09/23 01:47:23;;;;;;;0.00;0.00;;;11.70;99.90;;;;;;5094153;28;20200;-65
2023/09/23 01:49:48;;;;;;;0.00;0.00;;;11.70;99.90;;;;;;5093652;28;20202;-64
2023/09/23 01:52:16;;;;;;;0.00;0.00;;;11.70;99.90;;;;;;5094073;28;20192;-65
2023/09/23 01:54:44;;;;;;;0.00;0.00;;;11.70;99.90;;;;;;5093525;28;20174;-64
2023/09/23 01:57:16;;;;;;;0.00;0.00;;;11.70;99.90;;;;;;5093806;28;20206;-65
2023/09/23 01:59:41;;;;;;;0.00;0.00;;;11.70;99.90;;;;;;5093498;28;20620;-65
2023/09/23 02:02:09;;;;;;;0.00;0.00;;;11.70;99.90;;;;;;5093956;28;20259;-65
2023/09/23 02:04:39;;;;;;;0.00;0.00;;;11.60;99.90;;;;;;5092226;28;20183;-65
2023/09/23 02:07:10;;;;;;;0.00;0.00;;;11.60;99.90;;;;;;5093891;28;20180;-65
2023/09/23 02:09:37;;;;;;;0.00;0.00;;;11.60;99.90;;;;;;5093586;28;20233;-64
2023/09/23 02:12:03;;;;;;;0.00;0.00;;;11.60;99.90;;;;;;5093922;28;20192;-64
2023/09/23 02:14:29;;;;;;;0.00;0.00;;;11.50;99.90;;;;;;5093654;28;20178;-64
2023/09/23 02:16:56;;;;;;;0.00;0.00;;;11.50;99.90;;;;;;5093404;28;20639;-64
2023/09/23 02:19:21;;;;;;;0.00;0.00;;;11.50;99.90;;;;;;5092409;28;20215;-64
2023/09/23 02:21:48;;;;;;;0.00;0.00;;;11.50;99.90;;;;;;5092846;28;20179;-65
2023/09/23 02:24:14;;;;;;;0.00;0.00;;;11.40;99.90;;;;;;5093152;28;20188;-64
2023/09/23 02:26:39;;;;;;;0.00;0.00;;;11.40;99.90;;;;;;5093338;28;20309;-64
2023/09/23 02:29:06;;;;;;;0.00;0.00;;;11.40;99.90;;;;;;5093071;28;20199;-64
2023/09/23 02:31:32;;;;;;;0.00;0.00;;;11.40;99.90;;;;;;5092937;28;20251;-64
2023/09/23 02:33:57;;;;;;;0.00;0.00;;;11.30;99.90;;;;;;5093027;28;20255;-64
2023/09/23 02:36:23;;;;;;;0.00;0.00;;;11.30;99.90;;;;;;5092720;28;20177;-64
2023/09/23 02:38:49;;;;;;;0.10;0.10;;;11.30;99.90;;;;;;5092989;28;20234;-64
2023/09/23 02:41:14;;;;;;;0.00;0.00;;;11.30;99.90;;;;;;5093118;28;20188;-64
2023/09/23 02:43:40;;;;;;;0.00;0.00;;;11.30;99.90;;;;;;5091393;28;20632;-64
2023/09/23 02:46:06;;;;;;;0.00;0.00;;;11.30;99.90;;;;;;5093202;28;20176;-64
2023/09/23 02:48:33;;;;;;;0.00;0.00;;;11.30;99.90;;;;;;5092644;28;20617;-64
2023/09/23 02:51:03;;;;;;;0.00;0.00;;;11.20;99.90;;;;;;5091821;28;20176;-64
2023/09/23 02:53:30;;;;;;;0.00;0.00;;;11.30;99.90;;;;;;5092601;28;20183;-64
2023/09/23 02:56:07;;;;;;;0.00;0.00;;;11.20;99.90;;;;;;5092534;28;20183;-64
2023/09/23 02:58:33;;;;;;;0.00;0.00;;;11.20;99.90;;;;;;5092623;28;20222;-64
2023/09/23 03:01:01;;;;;;;0.00;0.00;;;11.20;99.90;;;;;;5092388;28;20210;-64
2023/09/23 03:03:27;;;;;;;0.00;0.00;;;11.20;99.90;;;;;;5092620;28;20180;-64
2023/09/23 03:05:57;;;;;;;0.00;0.00;;;11.20;99.90;;;;;;5091937;28;20623;-64
2023/09/23 03:08:26;;;;;;;0.00;0.00;;;11.20;99.90;;;;;;5091251;28;20173;-64
2023/09/23 03:10:54;;;;;;;0.00;0.00;;;11.20;99.90;;;;;;5091203;28;20184;-64
2023/09/23 03:13:20;;;;;;;0.00;0.00;;;11.20;99.90;;;;;;5092406;28;20658;-64
2023/09/23 03:15:58;;;;;;;0.00;0.00;;;11.10;99.90;;;;;;5093877;28;20642;-64
2023/09/23 03:18:33;;;;;;;0.00;0.00;;;11.20;99.90;;;;;;5090113;28;20204;-64
2023/09/23 03:21:07;;;;;;;0.00;0.00;;;11.20;99.90;;;;;;5092531;28;20315;-64
2023/09/23 03:23:35;;;;;;;0.00;0.00;;;11.10;99.90;;;;;;5092710;28;20205;-64
2023/09/23 03:26:00;;;;;;;0.00;0.00;;;11.10;99.90;;;;;;5087372;28;20509;-64
2023/09/23 03:28:26;;;;;;;0.00;0.00;;;11.10;99.90;;;;;;5092236;28;20175;-64
2023/09/23 03:30:59;;;;;;;0.00;0.00;;;11.10;99.90;;;;;;5091895;28;20579;-64
2023/09/23 03:33:24;;;;;;;0.00;0.00;;;11.10;99.90;;;;;;5092318;28;20187;-64
2023/09/23 03:35:50;;;;;;;0.00;0.00;;;11.10;99.90;;;;;;5092169;28;20176;-64
2023/09/23 03:38:15;;;;;;;0.00;0.00;;;11.10;99.90;;;;;;5092041;28;20271;-64
2023/09/23 03:40:48;;;;;;;0.00;0.00;;;11.10;99.90;;;;;;5092016;28;20639;-64
2023/09/23 03:43:13;;;;;;;0.00;0.00;;;11.10;99.90;;;;;;5091911;28;20176;-64
2023/09/23 03:45:40;;;;;;;0.00;0.00;;;11.20;99.90;;;;;;5091731;28;20538;-64
2023/09/23 03:48:06;;;;;;;0.00;0.00;;;11.10;99.90;;;;;;5092108;28;20257;-64
2023/09/23 03:50:32;;;;;;;0.00;0.00;;;11.20;99.90;;;;;;5091657;28;20180;-64
2023/09/23 03:52:58;;;;;;;0.00;0.00;;;11.10;99.90;;;;;;5091905;28;20258;-64
2023/09/23 03:55:24;;;;;;;0.00;0.00;;;11.20;99.90;;;;;;5090456;28;20274;-64
2023/09/23 03:57:50;;;;;;;0.00;0.00;;;11.10;99.90;;;;;;5091390;28;20233;-64
2023/09/23 04:00:19;;;;;;;0.00;0.00;;;11.10;99.90;;;;;;5092017;28;20176;-64
2023/09/23 04:02:47;;;;;;;0.00;0.00;;;11.10;99.90;;;;;;5091874;28;20176;-64
2023/09/23 04:05:16;;;;;;;0.00;0.00;;;11.10;99.90;;;;;;5091533;28;20309;-64
2023/09/23 04:07:51;;;;;;;0.00;0.00;;;11.10;99.90;;;;;;5091408;28;20211;-64
2023/09/23 04:10:19;;;;;;;0.00;0.00;;;11.10;99.90;;;;;;5091232;28;20248;-64
2023/09/23 04:12:45;;;;;;;0.08;0.08;;;11.10;99.90;;;;;;5090989;28;20263;-64
2023/09/23 04:15:11;;;;;;;0.00;0.00;;;11.10;99.90;;;;;;5091444;28;20267;-64
2023/09/23 04:17:39;;;;;;;0.00;0.00;;;11.10;99.90;;;;;;5091583;28;20180;-64
2023/09/23 04:20:14;;;;;;;0.10;0.10;;;11.10;99.90;;;;;;5091415;28;20659;-64
2023/09/23 04:22:42;;;;;;;0.00;0.00;;;11.10;99.90;;;;;;5091517;28;20243;-64
2023/09/23 04:25:08;;;;;;;0.00;0.00;;;11.10;99.90;;;;;;5091107;28;20176;-65
2023/09/23 04:27:36;;;;;;;0.00;0.00;;;11.10;99.90;;;;;;5091213;28;20176;-65
2023/09/23 04:30:09;;;;;;;0.15;0.15;;;11.10;99.90;;;;;;5091415;28;20168;-64
2023/09/23 04:32:39;;;;;;;0.00;0.00;;;11.10;99.90;;;;;;5090586;28;20179;-64
2023/09/23 04:35:15;;;;;;;0.00;0.00;;;11.00;99.90;;;;;;5091178;28;20183;-64
2023/09/23 04:37:40;;;;;;;0.00;0.00;;;11.00;99.90;;;;;;5090452;28;20298;-64
2023/09/23 04:40:11;;;;;;;0.00;0.00;;;11.00;99.90;;;;;;5090830;28;20302;-64
2023/09/23 04:42:41;;;;;;;0.00;0.00;;;10.90;99.90;;;;;;5090252;28;20180;-64
2023/09/23 04:45:08;;;;;;;0.00;0.00;;;10.90;99.90;;;;;;5090757;28;20194;-64
2023/09/23 04:47:35;;;;;;;0.00;0.00;;;10.80;99.90;;;;;;5090377;28;20186;-64
2023/09/23 04:50:04;;;;;;;0.00;0.00;;;10.80;99.90;;;;;;5090333;28;20223;-64
2023/09/23 04:52:29;;;;;;;0.00;0.00;;;10.80;99.90;;;;;;5090797;28;20180;-64
2023/09/23 04:54:55;;;;;;;0.00;0.00;;;10.70;99.90;;;;;;5090498;28;20180;-64
2023/09/23 04:57:21;;;;;;;0.00;0.00;;;10.70;99.90;;;;;;5090870;28;20547;-64
2023/09/23 04:59:47;;;;;;;0.00;0.00;;;10.60;99.90;;;;;;5090505;28;20207;-64
2023/09/23 05:02:13;;;;;;;0.00;0.00;;;10.60;99.90;;;;;;5090431;28;20199;-64
2023/09/23 05:04:39;;;;;;;0.00;0.00;;;10.60;99.90;;;;;;5090118;28;20180;-64
2023/09/23 05:07:04;;;;;;;0.00;0.00;;;10.60;99.90;;;;;;5090555;28;20176;-64
2023/09/23 05:09:30;;;;;;;0.00;0.00;;;10.60;99.90;;;;;;5090655;28;20182;-64
2023/09/23 05:11:56;;;;;;;0.00;0.00;;;10.50;99.90;;;;;;5090428;28;20271;-64
2023/09/23 05:14:21;;;;;;;0.00;0.00;;;10.50;99.90;;;;;;5090217;28;20670;-64
2023/09/23 05:16:50;;;;;;;0.00;0.00;;;10.50;99.90;;;;;;5089613;28;20702;-65
2023/09/23 05:19:16;;;;;;;0.00;0.00;;;10.50;99.90;;;;;;5090218;28;20219;-65
2023/09/23 05:21:42;;;;;;;0.00;0.00;;;10.50;99.90;;;;;;5090466;28;20180;-65
2023/09/23 05:24:09;;;;;;;0.00;0.00;;;10.50;99.90;;;;;;5090531;28;20191;-65
2023/09/23 05:26:35;;;;;;;0.00;0.00;;;10.60;99.90;;;;;;5090170;28;20223;-65
2023/09/23 05:29:00;;;;;;;0.20;0.20;;;10.50;99.90;;;;;;5090431;28;20200;-65
2023/09/23 05:31:26;;;;;;;0.00;0.00;;;10.50;99.90;;;;;;5090325;28;20187;-65
2023/09/23 05:33:52;;;;;;;0.00;0.00;;;10.50;99.90;;;;;;5090030;28;20184;-64
2023/09/23 05:36:20;;;;;;;0.00;0.00;;;10.60;99.90;;;;;;5090155;28;20184;-64
2023/09/23 05:38:45;;;;;;;0.00;0.00;;;10.70;99.90;;;;;;5089701;28;20273;-64
2023/09/23 05:41:11;;;;;;;0.00;0.00;;;10.70;99.90;;;;;;5090142;28;20176;-64
2023/09/23 05:43:37;;;;;;;0.00;0.00;;;10.70;99.90;;;;;;5089913;28;20176;-64
2023/09/23 05:46:07;;;;;;;0.00;0.00;;;10.80;99.90;;;;;;5090105;28;20214;-65
2023/09/23 05:48:33;;;;;;;0.20;0.20;;;10.90;99.90;;;;;;5090045;28;20188;-65
2023/09/23 05:51:05;;;;;;;0.00;0.00;;;11.00;99.90;;;;;;5089726;28;20168;-65
2023/09/23 05:53:32;;;;;;;0.00;0.00;;;11.10;99.90;;;;;;5090128;28;20619;-64
2023/09/23 05:55:59;;;;;;;0.00;0.00;;;11.20;99.90;;;;;;5093237;28;20231;-64
2023/09/23 05:58:24;;;;;;;0.00;0.00;;;11.30;99.90;;;;;;5093120;28;20212;-64
2023/09/23 06:00:50;;;;;;;0.00;0.00;;;11.30;99.90;;;;;;5093448;28;20596;-65
2023/09/23 06:03:17;;;;;;;0.00;0.00;;;11.40;99.90;;;;;;5084856;28;20180;-66
2023/09/23 06:05:44;;;;;;;0.00;0.00;;;11.40;99.90;;;;;;5093472;28;20183;-66
2023/09/23 06:08:12;;;;;;;0.00;0.00;;;11.50;99.90;;;;;;5093613;28;20187;-66
2023/09/23 06:10:39;;;;;;;0.00;0.00;;;11.60;99.90;;;;;;5093127;28;20669;-65
2023/09/23 06:13:08;;;;;;;0.00;0.00;;;11.60;99.90;;;;;;5093173;28;20184;-66
2023/09/23 06:15:34;;;;;;;0.00;0.00;;;11.70;99.90;;;;;;5093360;28;20187;-67
2023/09/23 06:18:00;;;;;;;0.00;0.00;;;11.70;99.90;;;;;;5093551;28;20180;-75
2023/09/23 06:20:26;;;;;;;0.00;0.00;;;11.80;99.90;;;;;;5093448;28;20250;-69
2023/09/23 06:22:51;;;;;;;0.00;0.00;;;11.90;99.90;;;;;;5093145;28;20191;-70
2023/09/23 06:25:17;;;;;;;0.00;0.00;;;12.10;99.90;;;;;;5093231;28;20183;-70
2023/09/23 06:27:43;;;;;;;0.00;0.00;;;12.20;99.90;;;;;;5092238;28;20217;-69
2023/09/23 06:30:09;;;;;;;0.00;0.00;;;12.30;99.90;;;;;;5093482;28;20190;-69
2023/09/23 06:32:35;;;;;;;0.00;0.00;;;12.40;99.90;;;;;;5092959;28;20195;-67
2023/09/23 06:35:02;;;;;;;0.00;0.00;;;12.60;99.90;;;;;;5093532;28;20185;-73
2023/09/23 06:37:27;;;;;;;0.45;0.32;;;12.70;99.90;;;;;;5092676;28;20219;-72
2023/09/23 06:39:53;;;;;;;0.00;0.00;;;12.90;99.90;;;;;;5092819;28;20735;-70
2023/09/23 06:42:18;;;;;;;0.00;0.00;;;13.00;99.90;;;;;;5093296;28;20172;-72
2023/09/23 06:44:45;;;;;;;0.00;0.00;;;13.10;99.90;;;;;;5093048;28;20176;-71
2023/09/23 06:47:10;;;;;;;0.00;0.00;;;13.20;99.90;;;;;;5092804;28;20637;-70
2023/09/23 06:49:36;;;;;;;0.00;0.00;;;13.30;99.90;;;;;;5092336;28;20184;-68
2023/09/23 06:52:02;;;;;;;0.00;0.00;;;13.50;99.90;;;;;;5084756;28;20716;-69
2023/09/23 06:54:27;;;;;;;0.00;0.00;;;13.70;99.90;;;;;;5107746;28;20180;-69
2023/09/23 06:56:56;;;;;;;0.00;0.00;;;13.90;99.90;;;;;;5109202;28;20523;-68
2023/09/23 06:59:21;;;;;;;0.00;0.00;;;14.20;99.90;;;;;;5092669;28;20231;-68
2023/09/23 07:01:47;;;;;;;0.00;0.00;;;14.30;99.90;;;;;;5092566;28;20164;-68
2023/09/23 07:04:13;;;;;;;0.00;0.00;;;14.30;99.90;;;;;;5092685;28;20527;-68
2023/09/23 07:06:38;;;;;;;0.00;0.00;;;14.40;99.90;;;;;;5091764;28;20176;-68
2023/09/23 07:09:04;;;;;;;0.00;0.00;;;14.50;99.90;;;;;;5096382;28;20175;-68
2023/09/23 07:11:30;;;;;;;0.00;0.00;;;14.70;99.90;;;;;;5112975;28;20170;-68
2023/09/23 07:13:58;;;;;;;0.00;0.00;;;14.90;99.90;;;;;;5112725;28;20171;-68
2023/09/23 07:16:24;;;;;;;0.00;0.00;;;15.10;99.90;;;;;;5112682;28;20183;-69
2023/09/23 07:18:50;;;;;;;0.00;0.00;;;15.20;99.90;;;;;;5094469;28;20203;-68
2023/09/23 07:21:16;;;;;;;0.00;0.00;;;15.50;99.90;;;;;;5092304;28;20525;-68
2023/09/23 07:23:42;;;;;;;0.00;0.00;;;15.70;99.90;;;;;;5092067;28;20230;-68
2023/09/23 07:26:07;;;;;;;0.00;0.00;;;15.70;99.90;;;;;;5092260;28;20176;-68
2023/09/23 07:28:33;;;;;;;0.00;0.00;;;15.80;99.90;;;;;;5092190;28;20187;-69
2023/09/23 07:30:59;;;;;;;0.00;0.00;;;15.80;99.90;;;;;;5092224;28;20259;-69
2023/09/23 07:33:24;;;;;;;0.00;0.00;;;16.00;99.90;;;;;;5092061;28;20249;-69
2023/09/23 07:35:50;;;;;;;0.00;0.00;;;16.30;99.90;;;;;;5092434;28;20207;-69
2023/09/23 07:38:15;;;;;;;0.00;0.00;;;16.50;99.90;;;;;;5091830;28;20263;-70
2023/09/23 07:40:41;;;;;;;0.00;0.00;;;16.80;99.90;;;;;;5091831;28;20204;-69
2023/09/23 07:43:07;;;;;;;0.00;0.00;;;16.90;99.90;;;;;;5091828;28;20171;-69
2023/09/23 07:45:33;;;;;;;0.00;0.00;;;16.90;99.90;;;;;;5093849;28;20172;-69
2023/09/23 07:47:58;;;;;;;0.00;0.00;;;17.10;99.90;;;;;;5091871;28;20262;-70
2023/09/23 07:50:24;;;;;;;0.00;0.00;;;17.30;99.90;;;;;;5091423;28;20538;-70
2023/09/23 07:52:50;;;;;;;0.00;0.00;;;17.40;99.90;;;;;;5091498;28;20183;-70
2023/09/23 07:55:16;;;;;;;0.00;0.00;;;17.70;99.90;;;;;;5091652;28;20185;-70
2023/09/23 07:57:42;;;;;;;0.00;0.00;;;18.20;99.90;;;;;;5091716;28;20168;-70
2023/09/23 08:00:08;;;;;;;0.00;0.00;;;18.50;99.80;;;;;;5091587;28;20290;-70
2023/09/23 08:02:35;;;;;;;0.00;0.00;;;18.80;98.90;;;;;;5091248;28;20263;-70
2023/09/23 08:05:03;;;;;;;0.00;0.00;;;19.10;98.50;;;;;;5092625;28;20658;-70
2023/09/23 08:07:29;;;;;;;0.00;0.00;;;19.50;98.20;;;;;;5090663;28;20176;-69
2023/09/23 08:09:55;;;;;;;0.00;0.00;;;19.80;96.70;;;;;;5090597;28;20187;-69
2023/09/23 08:12:20;;;;;;;0.00;0.00;;;19.70;96.40;;;;;;5091092;28;20194;-69
2023/09/23 08:14:46;;;;;;;0.00;0.00;;;19.80;96.70;;;;;;5091087;28;20643;-69
2023/09/23 08:17:11;;;;;;;0.00;0.00;;;20.10;96.50;;;;;;5089922;28;20663;-69
2023/09/23 08:19:37;;;;;;;0.00;0.00;;;20.50;95.70;;;;;;5090992;28;20645;-69
2023/09/23 08:22:03;;;;;;;0.00;0.00;;;20.70;95.80;;;;;;5090667;28;20180;-69
2023/09/23 08:24:28;;;;;;;0.00;0.00;;;21.20;95.40;;;;;;5091127;28;20186;-69
2023/09/23 08:26:56;;;;;;;0.00;0.00;;;21.30;93.90;;;;;;5091130;28;20210;-68
2023/09/23 08:29:23;;;;;;;0.00;0.00;;;20.80;93.20;;;;;;5091005;28;20237;-67
2023/09/23 08:31:49;;;;;;;0.00;0.00;;;20.40;93.20;;;;;;5090662;28;20203;-67
2023/09/23 08:34:17;;;;;;;0.00;0.00;;;20.20;94.20;;;;;;5090312;28;20208;-67
2023/09/23 08:36:42;;;;;;;0.00;0.00;;;19.80;94.30;;;;;;5082516;28;20217;-68
2023/09/23 08:39:09;;;;;;;0.00;0.00;;;19.80;95.00;;;;;;5090749;28;20224;-68
2023/09/23 08:41:35;;;;;;;0.00;0.00;;;19.60;94.50;;;;;;5089413;28;20164;-67
2023/09/23 08:44:07;;;;;;;0.00;0.00;;;20.00;95.80;;;;;;5090495;28;20278;-68
2023/09/23 08:46:33;;;;;;;0.00;0.00;;;20.40;94.90;;;;;;5090875;28;20229;-68
2023/09/23 08:48:59;;;;;;;0.00;0.00;;;20.80;94.50;;;;;;5090502;28;20183;-68
2023/09/23 08:51:27;;;;;;;0.00;0.00;;;21.00;93.50;;;;;;5090441;28;20576;-68
2023/09/23 08:53:54;;;;;;;0.00;0.00;;;21.00;93.10;;;;;;5090414;28;20183;-68
2023/09/23 08:56:20;;;;;;;0.00;0.00;;;21.20;93.30;;;;;;5090525;28;20310;-68
2023/09/23 08:58:48;;;;;;;0.00;0.00;;;21.30;92.50;;;;;;5090204;28;20247;-68
2023/09/23 09:01:15;;;;;;;0.00;0.00;;;21.20;91.90;;;;;;5090451;28;20184;-68
2023/09/23 09:03:41;;;;;;;0.00;0.00;;;21.10;92.20;;;;;;5090283;28;20164;-69
2023/09/23 09:06:21;;;;;;;0.00;0.00;;;21.40;92.00;;;;;;5090132;28;20673;-68
2023/09/23 09:08:47;;;;;;;0.00;0.00;;;21.20;91.40;;;;;;5090304;28;20210;-68
2023/09/23 09:11:20;;;;;;;0.00;0.00;;;21.00;91.40;;;;;;5090566;28;20242;-67
2023/09/23 09:13:47;;;;;;;0.00;0.00;;;21.10;91.50;;;;;;5090251;28;20172;-67
2023/09/23 09:16:13;;;;;;;0.00;0.00;;;21.30;92.20;;;;;;5090266;28;20180;-67
2023/09/23 09:18:38;;;;;;;0.00;0.00;;;21.60;92.30;;;;;;5090458;28;20553;-67
2023/09/23 09:21:08;;;;;;;0.00;0.00;;;21.90;91.40;;;;;;5090526;28;20180;-67
2023/09/23 09:23:33;;;;;;;0.00;0.00;;;22.00;90.10;;;;;;5090341;28;20175;-67
2023/09/23 09:25:59;;;;;;;0.00;0.00;;;21.90;90.20;;;;;;5078076;28;20658;-67
2023/09/23 09:28:25;;;;;;;0.00;0.00;;;21.90;90.00;;;;;;5089588;28;20180;-67
2023/09/23 09:30:56;;;;;;;0.00;0.00;;;21.80;88.80;;;;;;5094170;28;20179;-67
2023/09/23 09:33:26;;;;;;;0.00;0.00;;;21.70;90.00;;;;;;5094353;28;20199;-67
2023/09/23 09:35:56;;;;;;;0.00;0.00;;;21.90;89.00;;;;;;5075577;28;20185;-69
2023/09/23 09:38:25;;;;;;;0.00;0.00;;;21.90;90.40;;;;;;5093276;28;20314;-69
2023/09/23 09:40:56;;;;;;;0.00;0.00;;;21.80;90.00;;;;;;5094117;28;20172;-68
2023/09/23 09:43:23;;;;;;;0.88;0.10;;;21.90;90.00;;;;;;5094522;28;20172;-67
2023/09/23 09:45:49;;;;;;;0.00;0.00;;;22.00;88.50;;;;;;5093775;28;20206;-69
2023/09/23 09:48:17;;;;;;;0.00;0.00;;;21.90;87.80;;;;;;5094717;28;20178;-70
2023/09/23 09:50:45;;;;;;;0.00;0.00;;;21.90;88.70;;;;;;5093822;28;20640;-70
2023/09/23 09:53:12;;;;;;;0.00;0.00;;;21.60;88.10;;;;;;5092954;28;20243;-70
2023/09/23 09:55:38;;;;;;;0.00;0.00;;;21.60;88.80;;;;;;5093340;28;20220;-67
2023/09/23 09:58:03;;;;;;;0.00;0.00;;;21.50;87.80;;;;;;5093785;28;20168;-68
2023/09/23 10:00:33;;;;;;;0.00;0.00;;;21.30;90.00;;;;;;5096601;28;20535;-66
2023/09/23 10:03:08;;;;;;;0.00;0.00;;;21.10;87.70;;;;;;5108321;28;21260;-68
2023/09/23 10:05:46;;;;;;;0.00;0.00;;;21.10;89.60;;;;;;5093640;28;20696;-66
2023/09/23 10:08:15;;;;;;;0.03;0.00;;;21.10;89.10;;;;;;5093979;28;20278;-66
2023/09/23 10:10:49;;;;;;;0.00;0.00;;;21.40;90.20;;;;;;5093858;28;20183;-68
2023/09/23 10:13:16;;;;;;;0.00;0.00;;;21.50;89.30;;;;;;5093797;28;20172;-67
2023/09/23 10:15:43;;;;;;;0.00;0.00;;;21.50;87.30;;;;;;5093408;28;20289;-68
2023/09/23 10:18:13;;;;;;;0.00;0.00;;;21.60;87.10;;;;;;5093256;28;20187;-68
2023/09/23 10:20:41;;;;;;;0.00;0.00;;;21.80;88.40;;;;;;5092814;28;20180;-67
2023/09/23 10:23:08;;;;;;;0.00;0.00;;;21.70;86.20;;;;;;5073270;28;20263;-67
2023/09/23 10:25:43;;;;;;;0.00;0.00;;;21.80;86.90;;;;;;5089731;28;20233;-67
2023/09/23 10:28:26;;;;;;;0.00;0.00;;;21.90;86.90;;;;;;5093095;28;20312;-68
2023/09/23 10:31:03;;;;;;;0.00;0.00;;;22.00;87.20;;;;;;5092942;28;20179;-66
2023/09/23 10:33:31;;;;;;;0.00;0.00;;;21.90;85.90;;;;;;5093188;28;20654;-68
2023/09/23 10:35:58;;;;;;;0.00;0.00;;;21.90;86.30;;;;;;5092911;28;20199;-67
2023/09/23 10:38:31;;;;;;;0.00;0.00;;;21.90;89.10;;;;;;5092862;28;20296;-67
2023/09/23 10:40:57;;;;;;;0.00;0.00;;;21.90;85.60;;;;;;5091559;28;20219;-67
2023/09/23 10:43:23;;;;;;;0.00;0.00;;;21.80;85.30;;;;;;5093065;28;20199;-67
2023/09/23 10:45:49;;;;;;;0.00;0.00;;;21.90;85.70;;;;;;5092853;28;20663;-67
2023/09/23 10:48:16;;;;;;;0.00;0.00;;;21.90;86.30;;;;;;5092897;28;20895;-69
2023/09/23 10:50:43;;;;;;;0.00;0.00;;;22.00;86.30;;;;;;5092671;28;20223;-67
2023/09/23 10:53:08;;;;;;;0.00;0.00;;;22.20;85.90;;;;;;5092020;28;20173;-67
2023/09/23 10:55:35;;;;;;;0.00;0.00;;;22.40;86.00;;;;;;5092641;28;20176;-67
2023/09/23 10:58:01;;;;;;;0.00;0.00;;;22.80;83.30;;;;;;5092710;28;20176;-66
2023/09/23 11:00:28;;;;;;;0.00;0.00;;;22.90;82.10;;;;;;5092472;28;20215;-67
2023/09/23 11:02:54;;;;;;;0.00;0.00;;;22.40;81.00;;;;;;5092344;28;20566;-67
2023/09/23 11:05:24;;;;;;;0.00;0.00;;;22.00;81.80;;;;;;5092166;28;20180;-67
2023/09/23 11:07:55;;;;;;;0.00;0.00;;;21.50;83.40;;;;;;5092448;28;20168;-66
2023/09/23 11:10:23;;;;;;;0.00;0.00;;;21.00;83.40;;;;;;5092377;28;20180;-65
2023/09/23 11:12:49;;;;;;;0.00;0.00;;;20.60;84.80;;;;;;5092102;28;20184;-66
2023/09/23 11:15:14;;;;;;;0.00;0.00;;;20.60;85.60;;;;;;5092455;28;20320;-66
2023/09/23 11:17:41;;;;;;;0.00;0.00;;;21.00;86.50;;;;;;5092954;28;20210;-67
2023/09/23 11:20:10;;;;;;;0.00;0.00;;;21.10;85.40;;;;;;5092687;28;20262;-68
2023/09/23 11:22:37;;;;;;;0.00;0.00;;;21.10;84.50;;;;;;5091894;28;20233;-65
2023/09/23 11:25:11;;;;;;;0.00;0.00;;;21.10;85.10;;;;;;5092001;28;20188;-65
2023/09/23 11:27:37;;;;;;;0.00;0.00;;;21.20;86.70;;;;;;5090849;28;20708;-65
2023/09/23 11:30:04;;;;;;;0.00;0.00;;;21.10;85.40;;;;;;5091984;28;20180;-64
2023/09/23 11:32:31;;;;;;;0.00;0.00;;;21.20;85.50;;;;;;5092779;28;20183;-64
2023/09/23 11:34:57;;;;;;;0.20;0.20;;;21.10;86.40;;;;;;5085575;28;20184;-65
2023/09/23 11:37:22;;;;;;;0.00;0.00;;;21.20;85.60;;;;;;5092011;28;20216;-65
2023/09/23 11:39:49;;;;;;;0.00;0.00;;;21.40;86.00;;;;;;5091936;28;20219;-65
2023/09/23 11:42:14;;;;;;;0.00;0.00;;;21.80;85.40;;;;;;5091314;28;20180;-67
2023/09/23 11:44:40;;;;;;;0.00;0.00;;;22.20;84.10;;;;;;5089863;28;20826;-65
2023/09/23 11:47:05;;;;;;;0.00;0.00;;;22.50;82.70;;;;;;5091513;28;20188;-66
2023/09/23 11:49:31;;;;;;;0.00;0.00;;;22.40;80.90;;;;;;5091236;28;20255;-65
2023/09/23 11:51:57;;;;;;;0.00;0.00;;;21.80;82.30;;;;;;5089378;28;20172;-66
2023/09/23 11:54:23;;;;;;;0.00;0.00;;;21.40;81.40;;;;;;5090944;28;20544;-66
2023/09/23 11:56:48;;;;;;;0.00;0.00;;;21.20;84.20;;;;;;5087467;28;20249;-67
2023/09/23 11:59:15;;;;;;;0.00;0.00;;;21.30;84.70;;;;;;5095433;28;20217;-67
2023/09/23 12:01:41;;;;;;;0.10;0.10;;;21.20;83.60;;;;;;5111551;28;20168;-67
2023/09/23 12:04:07;;;;;;;0.00;0.00;;;21.10;85.60;;;;;;5098861;28;20187;-67
2023/09/23 12:06:35;;;;;;;0.00;0.00;;;20.70;83.70;;;;;;5090804;28;20275;-66
2023/09/23 12:09:02;;;;;;;0.00;0.00;;;20.30;84.50;;;;;;5090965;28;20521;-66
2023/09/23 12:11:28;;;;;;;0.00;0.00;;;20.10;86.40;;;;;;5090573;28;20263;-67
2023/09/23 12:13:54;;;;;;;0.00;0.00;;;20.00;85.80;;;;;;5090735;28;20715;-66
2023/09/23 12:16:19;;;;;;;0.00;0.00;;;20.10;86.20;;;;;;5090743;28;20187;-67
2023/09/23 12:18:48;;;;;;;0.00;0.00;;;20.40;87.10;;;;;;5090822;28;20273;-66
2023/09/23 12:21:14;;;;;;;0.00;0.00;;;20.90;86.10;;;;;;5090806;28;20673;-67
2023/09/23 12:23:40;;;;;;;0.00;0.00;;;21.30;85.80;;;;;;5090146;28;20179;-66
2023/09/23 12:26:06;;;;;;;0.00;0.00;;;21.50;84.10;;;;;;5090893;28;20596;-66
2023/09/23 12:28:32;;;;;;;0.00;0.00;;;21.60;85.60;;;;;;5091256;28;20182;-66
2023/09/23 12:30:57;;;;;;;0.00;0.00;;;21.60;83.60;;;;;;5090777;28;20176;-66
2023/09/23 12:33:23;;;;;;;0.00;0.00;;;21.50;84.10;;;;;;5105339;28;20225;-67
2023/09/23 12:35:48;;;;;;;0.00;0.00;;;21.50;84.80;;;;;;5091208;28;20254;-66
2023/09/23 12:38:14;;;;;;;0.00;0.00;;;21.30;83.70;;;;;;5090807;28;20264;-66
2023/09/23 12:40:39;;;;;;;0.00;0.00;;;21.30;84.10;;;;;;5091186;28;20722;-66
2023/09/23 12:43:05;;;;;;;0.00;0.00;;;21.00;84.70;;;;;;5091273;28;20627;-66
2023/09/23 12:45:31;;;;;;;0.00;0.00;;;20.90;86.50;;;;;;5089520;28;20182;-67
2023/09/23 12:47:56;;;;;;;0.00;0.00;;;21.00;85.50;;;;;;5090488;28;20262;-67